Time;durP1;ratioP1;P1;durP2;ratioP2;P2;SDS_P1;SDS_P2;PMS_P1;PMS_P2;Temp;Humidity;BMP_temperature;BMP_pressure;BME280_temperature;BME280_humidity;BME280_pressure;Samples;Min_cycle;Max_cycle;Signal;HPM_P1;HPM_P2
2022/01/07 00:00:22;;;;;;;112.18;69.93;;;;;;;;;;5015185;28;20043;-83
2022/01/07 00:02:56;;;;;;;115.03;72.22;;;;;;;;;;5034863;28;20044;-83
2022/01/07 00:05:23;;;;;;;114.15;68.28;;;;;;;;;;5036553;28;20479;-83
2022/01/07 00:07:49;;;;;;;108.45;65.80;;;;;;;;;;5036866;28;20030;-82
2022/01/07 00:10:17;;;;;;;109.65;67.28;;;;;;;;;;5037166;28;20082;-82
2022/01/07 00:12:44;;;;;;;112.88;67.03;;;;;;;;;;5036833;28;20074;-82
2022/01/07 00:15:11;;;;;;;115.60;70.43;;;;;;;;;;5036924;28;20033;-83
2022/01/07 00:17:37;;;;;;;108.93;66.00;;;;;;;;;;4999557;28;20040;-81
2022/01/07 00:20:10;;;;;;;119.20;67.72;;;;;;;;;;5017714;28;20105;-83
2022/01/07 00:22:38;;;;;;;115.13;65.55;;;;;;;;;;5017100;28;20041;-83
2022/01/07 00:25:04;;;;;;;114.80;68.45;;;;;;;;;;5018075;28;20029;-81
2022/01/07 00:27:31;;;;;;;107.28;65.13;;;;;;;;;;5001479;28;20024;-82
2022/01/07 00:29:57;;;;;;;111.40;66.18;;;;;;;;;;5016798;28;20477;-81
2022/01/07 00:32:23;;;;;;;108.00;64.10;;;;;;;;;;5033072;28;20110;-81
2022/01/07 00:34:49;;;;;;;107.22;62.90;;;;;;;;;;5031219;28;20030;-82
2022/01/07 00:37:16;;;;;;;111.85;62.92;;;;;;;;;;5036221;28;20028;-81
2022/01/07 00:39:42;;;;;;;103.93;65.55;;;;;;;;;;5035068;28;20025;-82
2022/01/07 00:42:08;;;;;;;112.50;66.18;;;;;;;;;;5035872;28;20573;-83
2022/01/07 00:44:35;;;;;;;102.80;62.97;;;;;;;;;;5035931;28;20107;-84
2022/01/07 00:47:01;;;;;;;110.93;63.40;;;;;;;;;;5031509;28;20385;-83
2022/01/07 00:49:27;;;;;;;106.22;62.63;;;;;;;;;;5033849;28;20448;-82
2022/01/07 00:51:54;;;;;;;100.28;59.85;;;;;;;;;;5032829;28;20022;-84
2022/01/07 00:54:21;;;;;;;103.93;62.50;;;;;;;;;;5031901;28;20477;-84
2022/01/07 00:56:48;;;;;;;105.32;60.58;;;;;;;;;;5033525;28;20025;-82
2022/01/07 00:59:14;;;;;;;111.15;63.03;;;;;;;;;;5032424;28;20025;-84
2022/01/07 01:01:40;;;;;;;105.60;61.80;;;;;;;;;;5026903;28;20052;-83
2022/01/07 01:04:07;;;;;;;101.35;58.65;;;;;;;;;;5030510;28;20091;-84
2022/01/07 01:06:34;;;;;;;104.18;61.92;;;;;;;;;;5027557;28;20025;-83
2022/01/07 01:09:00;;;;;;;103.53;60.47;;;;;;;;;;5024568;28;20024;-84
2022/01/07 01:11:26;;;;;;;97.78;56.60;;;;;;;;;;5027641;28;20469;-83
2022/01/07 01:13:53;;;;;;;101.10;59.58;;;;;;;;;;5013397;28;20021;-82
2022/01/07 01:16:19;;;;;;;91.03;56.72;;;;;;;;;;5030217;28;20030;-83
2022/01/07 01:18:46;;;;;;;102.63;59.10;;;;;;;;;;5031688;28;20033;-83
2022/01/07 01:21:13;;;;;;;98.28;56.38;;;;;;;;;;5035538;28;20054;-82
2022/01/07 01:23:40;;;;;;;96.25;59.17;;;;;;;;;;5042753;28;20427;-81
2022/01/07 01:26:06;;;;;;;90.20;53.80;;;;;;;;;;5043283;28;20056;-81
2022/01/07 01:28:32;;;;;;;94.45;57.70;;;;;;;;;;5044175;28;20085;-81
2022/01/07 01:30:59;;;;;;;93.75;56.60;;;;;;;;;;5032064;28;20543;-84
2022/01/07 01:33:25;;;;;;;95.78;56.42;;;;;;;;;;5045215;28;20044;-81
2022/01/07 01:35:51;;;;;;;96.03;55.80;;;;;;;;;;5040736;28;20029;-83
2022/01/07 01:38:18;;;;;;;87.60;52.65;;;;;;;;;;5033246;28;20039;-84
2022/01/07 01:40:44;;;;;;;93.05;54.83;;;;;;;;;;5021923;28;20040;-83
2022/01/07 01:43:10;;;;;;;98.82;55.95;;;;;;;;;;5034256;28;20045;-83
2022/01/07 01:45:36;;;;;;;93.57;54.00;;;;;;;;;;5031465;28;20046;-83
2022/01/07 01:48:03;;;;;;;100.38;56.40;;;;;;;;;;5025926;28;20055;-83
2022/01/07 01:50:29;;;;;;;101.47;54.88;;;;;;;;;;5015163;28;20029;-81
2022/01/07 01:52:57;;;;;;;88.57;53.53;;;;;;;;;;5034038;28;20075;-83
2022/01/07 01:55:25;;;;;;;92.20;52.33;;;;;;;;;;5030722;28;20060;-83
2022/01/07 01:57:53;;;;;;;92.32;55.13;;;;;;;;;;5026413;28;20116;-81
2022/01/07 02:00:20;;;;;;;92.45;52.70;;;;;;;;;;5034971;28;20037;-83
2022/01/07 02:02:47;;;;;;;91.72;54.13;;;;;;;;;;5033860;28;20031;-82
2022/01/07 02:05:14;;;;;;;93.80;54.05;;;;;;;;;;5034614;28;20029;-82
2022/01/07 02:07:41;;;;;;;88.57;52.78;;;;;;;;;;5015798;28;20056;-81
2022/01/07 02:10:10;;;;;;;98.65;54.78;;;;;;;;;;5025773;28;20021;-82
2022/01/07 02:12:37;;;;;;;95.15;53.63;;;;;;;;;;5016773;28;20026;-82
2022/01/07 02:15:04;;;;;;;99.85;53.03;;;;;;;;;;5030386;28;20029;-84
2022/01/07 02:17:30;;;;;;;91.75;50.83;;;;;;;;;;5015411;28;20033;-82
2022/01/07 02:19:57;;;;;;;93.15;51.88;;;;;;;;;;5015601;28;20358;-84
2022/01/07 02:22:24;;;;;;;106.47;55.88;;;;;;;;;;5028603;28;20400;-82
2022/01/07 02:24:51;;;;;;;93.13;52.08;;;;;;;;;;5033449;28;20033;-82
2022/01/07 02:27:17;;;;;;;100.03;54.22;;;;;;;;;;5032911;28;20092;-83
2022/01/07 02:29:45;;;;;;;97.03;53.15;;;;;;;;;;5034664;28;20037;-81
2022/01/07 02:32:11;;;;;;;97.63;53.70;;;;;;;;;;5014985;28;20029;-84
2022/01/07 02:34:38;;;;;;;105.13;57.42;;;;;;;;;;5019322;28;20037;-80
2022/01/07 02:37:04;;;;;;;106.68;56.78;;;;;;;;;;5032277;28;20038;-81
2022/01/07 02:39:31;;;;;;;96.60;53.03;;;;;;;;;;5040874;28;20021;-84
2022/01/07 02:41:57;;;;;;;92.90;53.15;;;;;;;;;;5029080;28;20026;-83
2022/01/07 02:44:24;;;;;;;98.73;57.27;;;;;;;;;;5034095;28;20065;-81
2022/01/07 02:46:50;;;;;;;111.57;57.08;;;;;;;;;;5027589;28;20017;-83
2022/01/07 02:49:18;;;;;;;96.63;53.70;;;;;;;;;;5006358;28;20026;-82
2022/01/07 02:51:45;;;;;;;107.10;55.58;;;;;;;;;;5026109;28;20017;-82
2022/01/07 02:54:12;;;;;;;99.55;55.50;;;;;;;;;;5022877;28;20026;-81
2022/01/07 02:56:38;;;;;;;100.95;56.88;;;;;;;;;;5030970;28;20472;-81
2022/01/07 02:59:05;;;;;;;114.25;61.63;;;;;;;;;;5032249;28;20408;-81
2022/01/07 03:01:32;;;;;;;112.53;60.70;;;;;;;;;;5025627;28;20025;-84
2022/01/07 03:03:58;;;;;;;104.88;60.42;;;;;;;;;;5028128;28;20029;-82
2022/01/07 03:06:25;;;;;;;130.23;70.75;;;;;;;;;;5007583;28;20059;-83
2022/01/07 03:08:51;;;;;;;107.47;64.78;;;;;;;;;;5028365;28;20100;-82
2022/01/07 03:11:18;;;;;;;128.88;69.60;;;;;;;;;;5029434;28;20027;-82
2022/01/07 03:13:45;;;;;;;106.85;62.67;;;;;;;;;;5012550;28;20022;-83
2022/01/07 03:16:11;;;;;;;137.95;76.50;;;;;;;;;;5029935;28;20144;-81
2022/01/07 03:18:38;;;;;;;129.57;75.53;;;;;;;;;;5026686;28;20036;-82
2022/01/07 03:21:04;;;;;;;130.30;76.50;;;;;;;;;;5027726;28;20041;-83
2022/01/07 03:23:31;;;;;;;119.25;72.07;;;;;;;;;;5023741;28;20034;-81
2022/01/07 03:25:57;;;;;;;136.52;75.45;;;;;;;;;;5028345;28;20364;-82
2022/01/07 03:28:24;;;;;;;130.02;75.38;;;;;;;;;;5007288;28;20028;-84
2022/01/07 03:30:50;;;;;;;138.63;77.32;;;;;;;;;;5027237;28;20025;-84
2022/01/07 03:33:19;;;;;;;149.50;81.40;;;;;;;;;;5025616;28;20033;-84
2022/01/07 03:35:46;;;;;;;160.93;87.85;;;;;;;;;;5027071;28;20037;-82
2022/01/07 03:38:12;;;;;;;174.25;96.15;;;;;;;;;;5023632;28;20160;-83
2022/01/07 03:40:38;;;;;;;186.90;99.72;;;;;;;;;;5007233;28;20034;-82
2022/01/07 03:43:05;;;;;;;185.82;99.93;;;;;;;;;;5024438;28;20080;-81
2022/01/07 03:45:31;;;;;;;188.45;104.88;;;;;;;;;;5025259;28;20025;-82
2022/01/07 03:47:58;;;;;;;230.73;121.25;;;;;;;;;;5026192;28;20037;-82
2022/01/07 03:50:26;;;;;;;221.63;115.40;;;;;;;;;;5005347;28;20075;-82
2022/01/07 03:52:53;;;;;;;228.88;121.88;;;;;;;;;;5002959;28;20438;-83
2022/01/07 03:55:21;;;;;;;188.05;109.85;;;;;;;;;;5022005;28;20106;-83
2022/01/07 03:57:47;;;;;;;206.13;112.80;;;;;;;;;;5012750;28;20032;-82
2022/01/07 04:00:25;;;;;;;198.93;108.05;;;;;;;;;;5010288;28;20033;-83
2022/01/07 04:02:52;;;;;;;226.82;117.38;;;;;;;;;;5024958;28;20026;-83
2022/01/07 04:05:22;;;;;;;181.13;101.70;;;;;;;;;;5023626;28;20033;-82
2022/01/07 04:07:49;;;;;;;196.85;108.18;;;;;;;;;;5032108;28;20017;-86
2022/01/07 04:10:15;;;;;;;187.77;105.65;;;;;;;;;;5027512;28;20041;-82
2022/01/07 04:12:41;;;;;;;202.90;106.55;;;;;;;;;;5028007;28;20057;-82
2022/01/07 04:15:08;;;;;;;183.13;102.45;;;;;;;;;;5005942;28;20048;-83
2022/01/07 04:17:44;;;;;;;159.07;96.22;;;;;;;;;;5024304;28;20097;-83
2022/01/07 04:20:11;;;;;;;194.45;105.38;;;;;;;;;;5024325;28;20029;-83
2022/01/07 04:22:37;;;;;;;169.27;99.55;;;;;;;;;;5007007;28;20033;-83
2022/01/07 04:25:06;;;;;;;198.73;107.47;;;;;;;;;;5024489;28;20485;-83
2022/01/07 04:27:32;;;;;;;172.45;101.55;;;;;;;;;;5007439;28;20032;-84
2022/01/07 04:29:58;;;;;;;175.07;102.15;;;;;;;;;;5008874;28;20071;-81
2022/01/07 04:32:25;;;;;;;177.88;99.85;;;;;;;;;;5028765;28;20037;-82
2022/01/07 04:34:52;;;;;;;186.45;105.85;;;;;;;;;;5028798;28;20497;-84
2022/01/07 04:37:18;;;;;;;174.25;100.32;;;;;;;;;;5008271;28;20049;-82
2022/01/07 04:39:44;;;;;;;168.32;98.82;;;;;;;;;;5024771;28;20501;-84
2022/01/07 04:42:11;;;;;;;155.60;94.32;;;;;;;;;;5029694;28;20087;-84
2022/01/07 04:44:40;;;;;;;189.75;103.03;;;;;;;;;;5008311;28;20051;-82
2022/01/07 04:47:07;;;;;;;189.13;98.90;;;;;;;;;;5024643;28;20026;-82
2022/01/07 04:49:34;;;;;;;166.77;93.60;;;;;;;;;;5030973;28;20029;-81
2022/01/07 04:52:00;;;;;;;196.45;101.55;;;;;;;;;;5034609;28;20381;-83
2022/01/07 04:54:26;;;;;;;177.13;95.38;;;;;;;;;;5015594;28;20520;-82
2022/01/07 04:56:53;;;;;;;156.38;87.43;;;;;;;;;;5029952;28;20018;-84
2022/01/07 04:59:19;;;;;;;151.55;86.32;;;;;;;;;;5032356;28;20028;-82
2022/01/07 05:01:45;;;;;;;165.02;91.65;;;;;;;;;;5030458;28;20033;-80
2022/01/07 05:04:12;;;;;;;154.88;88.05;;;;;;;;;;5032549;28;20014;-83
2022/01/07 05:06:45;;;;;;;167.63;89.68;;;;;;;;;;5014144;28;20026;-82
2022/01/07 05:09:13;;;;;;;160.55;91.55;;;;;;;;;;5033725;28;20113;-82
2022/01/07 05:11:39;;;;;;;161.48;91.55;;;;;;;;;;5028862;28;20315;-83
2022/01/07 05:14:05;;;;;;;154.35;89.93;;;;;;;;;;5035105;28;20025;-83
2022/01/07 05:16:31;;;;;;;152.68;88.47;;;;;;;;;;5033254;28;20036;-84
2022/01/07 05:18:58;;;;;;;149.38;83.57;;;;;;;;;;5033016;28;20021;-84
2022/01/07 05:21:24;;;;;;;152.43;85.32;;;;;;;;;;5031093;28;20046;-84
2022/01/07 05:23:50;;;;;;;144.80;81.22;;;;;;;;;;5012542;28;20025;-83
2022/01/07 05:26:17;;;;;;;160.48;85.07;;;;;;;;;;5028630;28;20029;-83
2022/01/07 05:28:43;;;;;;;135.23;79.40;;;;;;;;;;5027312;28;20030;-82
2022/01/07 05:31:09;;;;;;;139.63;79.03;;;;;;;;;;5027254;28;20942;-83
2022/01/07 05:33:35;;;;;;;137.65;75.07;;;;;;;;;;5007707;28;20064;-82
2022/01/07 05:36:02;;;;;;;123.95;73.82;;;;;;;;;;5032339;28;20021;-83
2022/01/07 05:38:28;;;;;;;142.63;78.72;;;;;;;;;;5029525;28;20037;-82
2022/01/07 05:40:54;;;;;;;113.28;66.05;;;;;;;;;;5012209;28;20032;-83
2022/01/07 05:43:21;;;;;;;112.53;64.30;;;;;;;;;;5037707;28;20029;-83
2022/01/07 05:45:47;;;;;;;104.97;61.58;;;;;;;;;;5037397;28;20061;-85
2022/01/07 05:48:13;;;;;;;114.10;65.20;;;;;;;;;;5037038;28;20021;-83
2022/01/07 05:50:40;;;;;;;102.10;60.13;;;;;;;;;;5035726;28;20013;-82
2022/01/07 05:53:06;;;;;;;97.78;59.50;;;;;;;;;;5030485;28;20092;-84
2022/01/07 05:55:33;;;;;;;100.82;58.58;;;;;;;;;;5031275;28;20041;-85
2022/01/07 05:57:59;;;;;;;90.90;56.13;;;;;;;;;;5033211;28;20376;-83
2022/01/07 06:00:25;;;;;;;84.07;52.70;;;;;;;;;;5024008;28;20052;-81
2022/01/07 06:02:52;;;;;;;86.07;54.38;;;;;;;;;;5025922;28;20083;-83
2022/01/07 06:05:18;;;;;;;79.93;50.88;;;;;;;;;;5011644;28;20383;-83
2022/01/07 06:07:44;;;;;;;80.30;49.88;;;;;;;;;;5009518;28;21082;-83
2022/01/07 06:10:10;;;;;;;81.30;49.67;;;;;;;;;;5028222;28;20036;-82
2022/01/07 06:12:37;;;;;;;75.80;46.60;;;;;;;;;;5021473;28;20026;-83
2022/01/07 06:15:03;;;;;;;68.65;45.03;;;;;;;;;;5027933;28;20044;-83
2022/01/07 06:17:30;;;;;;;74.93;47.03;;;;;;;;;;5013642;28;20026;-82
2022/01/07 06:19:56;;;;;;;69.68;44.78;;;;;;;;;;5032054;28;20036;-83
2022/01/07 06:22:23;;;;;;;71.60;44.40;;;;;;;;;;5032663;28;20079;-83
2022/01/07 06:24:49;;;;;;;68.10;43.60;;;;;;;;;;5032119;28;20026;-82
2022/01/07 06:27:15;;;;;;;66.22;43.95;;;;;;;;;;5033544;28;20030;-82
2022/01/07 06:29:42;;;;;;;66.38;43.88;;;;;;;;;;5031560;28;20491;-82
2022/01/07 06:32:08;;;;;;;65.20;44.40;;;;;;;;;;5027333;28;20376;-84
2022/01/07 06:34:35;;;;;;;65.97;44.88;;;;;;;;;;5029426;28;20036;-83
2022/01/07 06:37:02;;;;;;;68.18;44.78;;;;;;;;;;5024934;28;20048;-81
2022/01/07 06:39:29;;;;;;;61.83;40.42;;;;;;;;;;5027041;28;20037;-82
2022/01/07 06:41:59;;;;;;;64.53;41.85;;;;;;;;;;5027077;28;20048;-84
2022/01/07 06:44:26;;;;;;;59.60;40.45;;;;;;;;;;5026289;28;20467;-82
2022/01/07 06:46:52;;;;;;;65.80;42.03;;;;;;;;;;5008838;28;20025;-84
2022/01/07 06:49:19;;;;;;;60.22;40.35;;;;;;;;;;5027169;28;20040;-81
2022/01/07 06:51:45;;;;;;;62.20;40.38;;;;;;;;;;5024481;28;20026;-82
2022/01/07 06:54:11;;;;;;;54.33;37.15;;;;;;;;;;5024699;28;20544;-83
2022/01/07 06:56:42;;;;;;;56.00;36.83;;;;;;;;;;5027179;28;20108;-82
2022/01/07 06:59:08;;;;;;;49.15;33.15;;;;;;;;;;5025612;28;20125;-83
2022/01/07 07:01:35;;;;;;;51.70;35.55;;;;;;;;;;5024902;28;20022;-83
2022/01/07 07:04:01;;;;;;;59.20;39.72;;;;;;;;;;5006010;28;20034;-83
2022/01/07 07:06:28;;;;;;;59.03;38.67;;;;;;;;;;5020096;28;20037;-83
2022/01/07 07:08:54;;;;;;;51.67;35.15;;;;;;;;;;5006318;28;20140;-81
2022/01/07 07:11:20;;;;;;;54.22;35.70;;;;;;;;;;5023029;28;20376;-83
2022/01/07 07:13:47;;;;;;;51.88;35.53;;;;;;;;;;5023227;28;20064;-84
2022/01/07 07:16:13;;;;;;;58.53;36.58;;;;;;;;;;5030028;28;20031;-83
2022/01/07 07:18:39;;;;;;;51.55;35.78;;;;;;;;;;5022609;28;20037;-83
2022/01/07 07:21:05;;;;;;;53.80;37.88;;;;;;;;;;5030397;28;20045;-82
2022/01/07 07:23:32;;;;;;;53.78;38.30;;;;;;;;;;5012367;28;20117;-82
2022/01/07 07:25:58;;;;;;;55.92;38.28;;;;;;;;;;5025142;28;20038;-82
2022/01/07 07:28:24;;;;;;;56.70;38.47;;;;;;;;;;5021949;28;20021;-83
2022/01/07 07:30:54;;;;;;;58.10;38.97;;;;;;;;;;5022712;28;20072;-82
2022/01/07 07:38:35;;;;;;;58.28;35.88;;;;;;;;;;5024635;28;20547;-82
2022/01/07 07:41:01;;;;;;;56.03;37.70;;;;;;;;;;5024510;28;20041;-82
2022/01/07 07:43:27;;;;;;;48.03;33.70;;;;;;;;;;5027656;28;20030;-84
2022/01/07 07:45:54;;;;;;;47.78;32.10;;;;;;;;;;5025178;28;20125;-84
2022/01/07 07:48:20;;;;;;;46.40;32.15;;;;;;;;;;5029607;28;20044;-83
2022/01/07 07:50:47;;;;;;;45.42;32.83;;;;;;;;;;5028040;28;20026;-83
2022/01/07 07:53:13;;;;;;;51.55;35.45;;;;;;;;;;5008768;28;20029;-82
2022/01/07 07:55:40;;;;;;;52.42;34.42;;;;;;;;;;5025926;28;20029;-82
2022/01/07 07:58:06;;;;;;;50.53;33.88;;;;;;;;;;5031987;28;20025;-83
2022/01/07 08:00:33;;;;;;;49.10;34.95;;;;;;;;;;5031761;28;20025;-82
2022/01/07 08:02:59;;;;;;;53.30;36.75;;;;;;;;;;5030279;28;20112;-83
2022/01/07 08:05:25;;;;;;;48.80;33.83;;;;;;;;;;5011891;28;20032;-83
2022/01/07 08:07:52;;;;;;;52.28;34.58;;;;;;;;;;5023698;28;20109;-83
2022/01/07 08:10:23;;;;;;;52.70;35.05;;;;;;;;;;5025968;28;20071;-84
2022/01/07 08:12:53;;;;;;;50.47;32.55;;;;;;;;;;5029055;28;20042;-82
2022/01/07 08:18:05;;;;;;;53.50;34.92;;;;;;;;;;5024285;28;20500;-83
2022/01/07 08:20:31;;;;;;;57.35;37.33;;;;;;;;;;5027334;28;20058;-83
2022/01/07 08:22:57;;;;;;;61.75;39.10;;;;;;;;;;5009952;28;20068;-84
2022/01/07 08:25:24;;;;;;;47.78;32.83;;;;;;;;;;5010360;28;20121;-82
2022/01/07 08:27:51;;;;;;;47.03;31.77;;;;;;;;;;5032853;28;20040;-85
2022/01/07 08:30:24;;;;;;;47.60;32.10;;;;;;;;;;5029586;28;20051;-83
2022/01/07 08:35:38;;;;;;;52.90;35.28;;;;;;;;;;5027378;28;20397;-83
2022/01/07 08:38:05;;;;;;;55.88;35.80;;;;;;;;;;5011407;28;20115;-82
2022/01/07 08:40:32;;;;;;;58.95;36.17;;;;;;;;;;5031046;28;20030;-82
2022/01/07 08:42:58;;;;;;;53.88;36.47;;;;;;;;;;5012131;28;20034;-84
2022/01/07 08:45:25;;;;;;;54.17;36.45;;;;;;;;;;5029201;28;20339;-84
2022/01/07 08:47:52;;;;;;;59.42;37.40;;;;;;;;;;5025831;28;20050;-82
2022/01/07 08:50:18;;;;;;;59.47;37.45;;;;;;;;;;5030420;28;20147;-83
2022/01/07 08:52:45;;;;;;;53.30;37.92;;;;;;;;;;5011391;28;20022;-85
2022/01/07 08:55:11;;;;;;;54.15;35.08;;;;;;;;;;5016466;28;20040;-83
2022/01/07 08:57:38;;;;;;;61.33;39.63;;;;;;;;;;5025019;28;20030;-82
2022/01/07 09:00:05;;;;;;;58.83;41.05;;;;;;;;;;5035006;28;20025;-84
2022/01/07 09:02:31;;;;;;;57.45;39.30;;;;;;;;;;5030416;28;20071;-83
2022/01/07 09:04:58;;;;;;;61.70;41.00;;;;;;;;;;5027929;28;20495;-82
2022/01/07 09:07:24;;;;;;;54.92;36.42;;;;;;;;;;5029724;28;20390;-83
2022/01/07 09:09:50;;;;;;;46.22;32.97;;;;;;;;;;5027578;28;20022;-81
2022/01/07 09:12:17;;;;;;;49.88;34.88;;;;;;;;;;5026373;28;20528;-82
2022/01/07 09:14:43;;;;;;;53.03;36.83;;;;;;;;;;5033690;28;20453;-81
2022/01/07 09:17:09;;;;;;;50.80;35.28;;;;;;;;;;5028735;28;20396;-82
2022/01/07 09:19:35;;;;;;;51.83;35.03;;;;;;;;;;5029883;28;20387;-82
2022/01/07 09:22:02;;;;;;;50.90;35.97;;;;;;;;;;5031559;28;20432;-82
2022/01/07 09:24:29;;;;;;;56.45;39.15;;;;;;;;;;5025825;28;20049;-83
2022/01/07 09:26:56;;;;;;;58.30;39.50;;;;;;;;;;5015186;28;20029;-84
2022/01/07 09:29:23;;;;;;;59.97;40.95;;;;;;;;;;5032709;28;20029;-83
2022/01/07 09:31:50;;;;;;;63.90;44.17;;;;;;;;;;5031647;28;20025;-83
2022/01/07 09:34:17;;;;;;;62.17;42.03;;;;;;;;;;5032211;28;20087;-83
2022/01/07 09:36:43;;;;;;;62.78;40.55;;;;;;;;;;5032653;28;20032;-83
2022/01/07 09:39:09;;;;;;;67.30;43.22;;;;;;;;;;5032360;28;20021;-82
2022/01/07 09:41:35;;;;;;;64.38;44.85;;;;;;;;;;5032073;28;20057;-83
2022/01/07 09:44:02;;;;;;;66.88;44.30;;;;;;;;;;5033807;28;20033;-84
2022/01/07 09:46:29;;;;;;;66.05;45.97;;;;;;;;;;5033950;28;20397;-81
2022/01/07 09:48:55;;;;;;;70.90;47.88;;;;;;;;;;5032458;28;20445;-81
2022/01/07 09:51:22;;;;;;;72.30;48.97;;;;;;;;;;5028603;28;20469;-82
2022/01/07 09:53:49;;;;;;;66.93;47.83;;;;;;;;;;5024154;28;20029;-82
2022/01/07 09:56:17;;;;;;;78.00;52.13;;;;;;;;;;5010386;28;20456;-83
2022/01/07 09:58:43;;;;;;;77.80;53.10;;;;;;;;;;5030026;28;20253;-83
2022/01/07 10:01:13;;;;;;;87.55;59.72;;;;;;;;;;5012389;28;20041;-83
2022/01/07 10:03:43;;;;;;;95.53;61.15;;;;;;;;;;5029051;28;20468;-82
2022/01/07 10:06:25;;;;;;;97.18;65.38;;;;;;;;;;5032368;28;20041;-83
2022/01/07 10:08:59;;;;;;;114.18;73.13;;;;;;;;;;5037363;28;20487;-82
2022/01/07 10:11:25;;;;;;;100.38;67.00;;;;;;;;;;5012699;28;20159;-82
2022/01/07 10:14:11;;;;;;;97.13;62.58;;;;;;;;;;5035285;28;20029;-82
2022/01/07 10:16:48;;;;;;;102.28;66.80;;;;;;;;;;5025862;28;20038;-82
2022/01/07 10:19:33;;;;;;;108.68;67.85;;;;;;;;;;5033398;28;20053;-84
2022/01/07 10:22:05;;;;;;;107.35;67.97;;;;;;;;;;5034358;28;20132;-82
2022/01/07 10:24:32;;;;;;;122.13;74.50;;;;;;;;;;5037382;28;20029;-82
2022/01/07 10:27:12;;;;;;;127.25;74.55;;;;;;;;;;5031744;28;20033;-82
2022/01/07 10:29:40;;;;;;;121.50;70.68;;;;;;;;;;5026259;28;20025;-81
2022/01/07 10:32:21;;;;;;;111.03;70.82;;;;;;;;;;5012268;28;20044;-83
2022/01/07 10:35:07;;;;;;;108.85;68.50;;;;;;;;;;5037505;28;20179;-82
2022/01/07 10:37:34;;;;;;;105.38;67.07;;;;;;;;;;5044585;28;20029;-82
2022/01/07 10:40:00;;;;;;;97.68;63.00;;;;;;;;;;5040328;28;20163;-82
2022/01/07 10:42:27;;;;;;;99.15;64.85;;;;;;;;;;5046206;28;20029;-80
2022/01/07 10:45:06;;;;;;;100.53;62.15;;;;;;;;;;5044043;28;20029;-83
2022/01/07 10:47:32;;;;;;;89.28;55.38;;;;;;;;;;5031720;28;20037;-81
2022/01/07 10:50:14;;;;;;;80.00;51.17;;;;;;;;;;5031450;28;20054;-83
2022/01/07 10:52:41;;;;;;;77.00;49.50;;;;;;;;;;5034411;28;20388;-82
2022/01/07 10:55:11;;;;;;;78.82;46.85;;;;;;;;;;5033157;28;20086;-81
2022/01/07 10:57:38;;;;;;;64.20;43.50;;;;;;;;;;5034460;28;20108;-82
2022/01/07 11:00:06;;;;;;;63.67;41.63;;;;;;;;;;5028829;28;20037;-83
2022/01/07 11:02:35;;;;;;;72.05;44.03;;;;;;;;;;5017005;28;20029;-82
2022/01/07 11:05:02;;;;;;;62.53;40.08;;;;;;;;;;5011307;28;20040;-82
2022/01/07 11:07:31;;;;;;;68.72;41.53;;;;;;;;;;5014145;28;20026;-83
2022/01/07 11:09:58;;;;;;;63.40;40.08;;;;;;;;;;5032631;28;20029;-83
2022/01/07 11:12:25;;;;;;;66.07;42.90;;;;;;;;;;5032084;28;20037;-82
2022/01/07 11:14:52;;;;;;;68.47;43.88;;;;;;;;;;5014546;28;20041;-82
2022/01/07 11:17:21;;;;;;;64.97;42.22;;;;;;;;;;5030487;28;20048;-82
2022/01/07 11:19:52;;;;;;;71.00;43.80;;;;;;;;;;5015087;28;20384;-82
2022/01/07 11:22:19;;;;;;;81.18;52.72;;;;;;;;;;5033096;28;20068;-83
2022/01/07 11:24:54;;;;;;;95.50;57.78;;;;;;;;;;5011561;28;21105;-84
2022/01/07 11:27:21;;;;;;;89.30;55.15;;;;;;;;;;5025161;28;20029;-83
2022/01/07 11:30:10;;;;;;;85.68;56.25;;;;;;;;;;5031966;28;20025;-82
2022/01/07 11:32:38;;;;;;;90.15;56.83;;;;;;;;;;5030498;28;20055;-83
2022/01/07 11:35:20;;;;;;;83.95;53.97;;;;;;;;;;5028672;28;20157;-83
2022/01/07 11:37:47;;;;;;;91.00;57.28;;;;;;;;;;5032675;28;20037;-82
2022/01/07 11:40:32;;;;;;;91.85;56.10;;;;;;;;;;5032789;28;20469;-82
2022/01/07 11:43:01;;;;;;;81.55;51.63;;;;;;;;;;5027805;28;20513;-82
2022/01/07 11:45:27;;;;;;;75.30;48.03;;;;;;;;;;5024067;28;20034;-82
2022/01/07 11:47:54;;;;;;;81.38;51.75;;;;;;;;;;5033070;28;20080;-82
2022/01/07 11:50:22;;;;;;;88.78;56.05;;;;;;;;;;5025482;28;20483;-83
2022/01/07 11:52:58;;;;;;;97.30;61.35;;;;;;;;;;5034621;28;20025;-82
2022/01/07 11:55:35;;;;;;;102.57;67.32;;;;;;;;;;5015432;28;20358;-82
2022/01/07 11:58:12;;;;;;;98.88;67.22;;;;;;;;;;5038374;28;20033;-83
2022/01/07 12:00:58;;;;;;;113.22;70.15;;;;;;;;;;5033559;28;20033;-83
2022/01/07 12:03:34;;;;;;;104.85;66.85;;;;;;;;;;5014780;28;20030;-85
2022/01/07 12:06:01;;;;;;;91.90;60.15;;;;;;;;;;5033603;28;20029;-84
2022/01/07 12:08:40;;;;;;;94.05;62.95;;;;;;;;;;5034727;28;20033;-83
2022/01/07 12:11:07;;;;;;;102.85;64.15;;;;;;;;;;5037028;28;20030;-82
2022/01/07 12:13:42;;;;;;;100.93;63.08;;;;;;;;;;5035409;28;20083;-83
2022/01/07 12:16:09;;;;;;;117.65;69.82;;;;;;;;;;5028687;28;20041;-82
2022/01/07 12:18:36;;;;;;;105.07;68.63;;;;;;;;;;5018075;28;20029;-83
2022/01/07 12:21:02;;;;;;;102.65;65.70;;;;;;;;;;5036025;28;20459;-83
2022/01/07 12:23:29;;;;;;;96.47;58.10;;;;;;;;;;5036702;28;20030;-81
2022/01/07 12:25:57;;;;;;;98.90;59.10;;;;;;;;;;5036707;28;20064;-83
2022/01/07 12:28:24;;;;;;;81.97;52.45;;;;;;;;;;5036176;28;20125;-83
2022/01/07 12:30:51;;;;;;;85.90;52.85;;;;;;;;;;5037289;28;20477;-82
2022/01/07 12:33:18;;;;;;;83.03;52.63;;;;;;;;;;5018688;28;20057;-85
2022/01/07 12:35:44;;;;;;;77.55;49.78;;;;;;;;;;5030159;28;20112;-81
2022/01/07 12:38:14;;;;;;;83.75;51.45;;;;;;;;;;5035175;28;20044;-83
2022/01/07 12:40:41;;;;;;;81.82;50.05;;;;;;;;;;5032013;28;20033;-84
2022/01/07 12:43:09;;;;;;;81.32;51.33;;;;;;;;;;5031619;28;20045;-81
2022/01/07 12:45:37;;;;;;;80.60;50.72;;;;;;;;;;5026855;28;20109;-82
2022/01/07 12:48:03;;;;;;;83.60;50.45;;;;;;;;;;5009281;28;20025;-83
2022/01/07 12:50:30;;;;;;;109.80;65.47;;;;;;;;;;5033339;28;20087;-83
2022/01/07 12:52:56;;;;;;;116.80;67.78;;;;;;;;;;5033086;28;20054;-83
2022/01/07 12:55:24;;;;;;;111.65;66.50;;;;;;;;;;5031942;28;20029;-83
2022/01/07 12:57:52;;;;;;;111.10;64.95;;;;;;;;;;5036503;28;20051;-84
2022/01/07 13:00:22;;;;;;;121.20;67.43;;;;;;;;;;5018170;28;20037;-83
2022/01/07 13:02:54;;;;;;;116.68;67.45;;;;;;;;;;5036346;28;20029;-83
2022/01/07 13:05:21;;;;;;;101.35;61.55;;;;;;;;;;5036939;28;20022;-83
2022/01/07 13:07:48;;;;;;;103.25;62.83;;;;;;;;;;5035138;28;20059;-84
2022/01/07 13:10:25;;;;;;;115.50;65.88;;;;;;;;;;5018887;28;20032;-81
2022/01/07 13:12:59;;;;;;;111.55;66.35;;;;;;;;;;5018439;28;20576;-84
2022/01/07 13:15:39;;;;;;;113.22;68.53;;;;;;;;;;5034933;28;20040;-85
2022/01/07 13:18:16;;;;;;;131.27;75.07;;;;;;;;;;5018262;28;20025;-83
2022/01/07 13:20:42;;;;;;;124.03;69.07;;;;;;;;;;5035191;28;20052;-83
2022/01/07 13:23:09;;;;;;;125.30;69.25;;;;;;;;;;5035473;28;20538;-84
2022/01/07 13:25:35;;;;;;;127.60;69.13;;;;;;;;;;5035673;28;20034;-82
2022/01/07 13:28:02;;;;;;;131.95;73.38;;;;;;;;;;5014576;28;20041;-83
2022/01/07 13:30:55;;;;;;;113.32;70.53;;;;;;;;;;5029550;28;20037;-83
2022/01/07 13:33:25;;;;;;;125.13;73.57;;;;;;;;;;5031784;28;20124;-84
2022/01/07 13:35:56;;;;;;;123.93;71.88;;;;;;;;;;5035455;28;20025;-84
2022/01/07 13:38:22;;;;;;;132.18;73.88;;;;;;;;;;5017929;28;20025;-85
2022/01/07 13:40:50;;;;;;;115.57;66.47;;;;;;;;;;5035462;28;20079;-82
2022/01/07 13:43:17;;;;;;;120.45;68.72;;;;;;;;;;5034740;28;20026;-84
2022/01/07 13:45:43;;;;;;;103.20;60.85;;;;;;;;;;5034510;28;20445;-85
2022/01/07 13:48:11;;;;;;;109.28;65.82;;;;;;;;;;5035066;28;20385;-84
2022/01/07 13:50:39;;;;;;;93.25;54.92;;;;;;;;;;5038770;28;20033;-82
2022/01/07 13:53:13;;;;;;;93.63;52.53;;;;;;;;;;5039822;28;20021;-84
2022/01/07 13:55:39;;;;;;;69.40;41.33;;;;;;;;;;5042358;28;20033;-84
2022/01/07 13:58:06;;;;;;;72.63;44.53;;;;;;;;;;5030131;28;20087;-81
2022/01/07 14:00:32;;;;;;;75.95;41.15;;;;;;;;;;5027324;28;20049;-82
2022/01/07 14:02:59;;;;;;;64.60;39.42;;;;;;;;;;5026493;28;20037;-86
2022/01/07 14:05:26;;;;;;;76.07;46.00;;;;;;;;;;5028656;28;20512;-83
2022/01/07 14:07:56;;;;;;;83.10;47.95;;;;;;;;;;5011669;28;20049;-81
2022/01/07 14:10:25;;;;;;;80.65;47.80;;;;;;;;;;5026468;28;20060;-84
2022/01/07 14:12:53;;;;;;;97.55;54.65;;;;;;;;;;5005732;28;20087;-84
2022/01/07 14:15:21;;;;;;;97.40;54.15;;;;;;;;;;5027012;28;20029;-84
2022/01/07 14:17:48;;;;;;;86.20;50.20;;;;;;;;;;5020819;28;20029;-83
2022/01/07 14:20:15;;;;;;;86.60;51.60;;;;;;;;;;5007479;28;20048;-84
2022/01/07 14:22:42;;;;;;;83.85;50.42;;;;;;;;;;5024338;28;20037;-84
2022/01/07 14:25:09;;;;;;;78.07;46.42;;;;;;;;;;5006844;28;20083;-85